SBOSBO CMN / GMMN
Speedbird OnlineSpeedbird Online CMN / GMMN

Mohammed V International Airport
23:03 16°C

Location Casablanca, Morocco
Latitude: 33.36750030517578
Longitude: -7.589970111846924
Local Time 23:03 on 20 May 2024
UTC +1 hours (Africa/Casablanca)
Currency £1 equals MAD 12.61
METAR GMMN 202130Z 36005KT CAVOK 16/10 Q1019 NOSIG
TAF TAF GMMN 201700Z 2018/2124 36012KT 9999 SCT040 BECMG 2020/2022 34006KT 9999 SCT020 PROB30 TEMPO 2104/2107 3000 BR BKN008 BECMG 2109/2111 34008KT 9999 SCT026
Weather As Of 20 May 2024 23:03
Description Clear sky
Wind 9 km/h from North (360°)
Cloud Cover 0%
Precipitation Rain: none, Snow: none
Sunrise 06:26
Sunset 20:27
Lounges Le Zénith I Lounge, 1
Le Zénith II Lounge - TEMPORARILY CLOSED, Terminal 2, Ground Floo
Web Airport Website | Wikipedia
Codes IATA: CMN
ICAO: GMMN
Altitude 200 Meter / 656 Feet
Distance 2,111 KM / 1,312 Miles
from London.
Runways
RunwayLength (m)Surface
17L3720Asphalt
17R3720Asphalt
35L3720Asphalt
35R3720Asphalt
Radio
TypeDescriptionFrequency
APP119.9
APPAPP121.3
ATISATIS126.3
TWRTWR118.5
Live ATC



Support Speedbird Online

© 2017-2024 Speedbird Online